Beaver Island, Michigan
Current Conditions -  °F | °C
As of 8:36 AM on Thursday 30 Oct 2014 (Local Time) from KSJX Reporting Station
Overcast Overcast  
Wind Chill: 38°   Ceiling: 3700
Heat Index: 38°   Visibility: 10mi
Dew Point: 37°   Wind: 0mph
Humidity: 95%   Direction: NA
Pressure: 30.07"   Gusts: NA
Location:  45.64°N, 85.52°W
Report Text: KSJX 301236Z AUTO 00000KT 10SM SCT022 OVC037 04/03 A3007 RMK AO2 T00350028
Loading
Personal Weather Stations






























Interactive Weather Map
Tropical Storm Tracking
New forecast layout! Learn more

10-Day Weather Forecast

Advertisements
Track Severe Weather on mobile